Airfield :
LOGIN :

Register | Disclaimer

   EN    FR    IT 

 










Legend :    VFR   Marginal VFR   IFR   Intensive IFR   Very Intensive IFR
Visi :
Ceiling :
>= 8 km
>= 3000ft
5 to 8 km
1000 to 3000 ft
1500m to 5 km
500 to 1000 ft
800 to 1500m
200 to 500 ft
< 800m
< 200 ft
Symbols :   Thunderstorms  Fog  Heavy snow  Heavy precipitations  Wind > 20 kt
SIGMETs :     Misc.  Thunderstorms  Icing  Turbulence  Mountain Waves  Volcanic Ashes







- Airport Elevation : 102 ft
- IATA code : EXT
- Download approach charts


EGTE - Exeter

CURRENT METAR :
  • 191620Z 15007KT CAVOK 19/12 Q1029

EXPIRED METARs :
  • 191550Z 14008KT 110V170 CAVOK 19/12 Q1029
  • 191520Z 14008KT 110V170 CAVOK 19/11 Q1029
  • 191450Z 13007KT 100V160 CAVOK 20/12 Q1029
  • 191420Z 13008KT CAVOK 19/11 Q1030

TAF TAF EGTE
Valid from the 19 at 15:00 until the 20 at 00:00 UTC


191401Z 1915/1924 12006KT CAVOK
No reported NOTAMs for that airfield.



MET'MAP, your aeronautical weather chart ! - Copyright ORBIFLY December 2007 - Disclaimer

ORBIFLY MET'MAP TEAM :

Programming & Development : Alexandra Zaïnal
Concept & Development : Baudouin d'Aumeries
Co-Development & Prog : Marc-Olivier Méhu
Technical & hardware support : Manuel Goepfert

Contact : metmap@orbifly.com




SOURCES & CREDITS :

   NOAA